createdAt,value
2022-12-05T00:00:27.112Z,22.17
2022-12-05T00:02:53.303Z,21.65
2022-12-05T00:05:19.502Z,22.67
2022-12-05T00:07:45.812Z,22.38
2022-12-05T00:10:12.111Z,22.23
2022-12-05T00:12:38.456Z,22.67
2022-12-05T00:15:05.101Z,23.77
2022-12-05T00:17:31.715Z,23.98
2022-12-05T00:19:58.573Z,23.25
2022-12-05T00:22:25.027Z,22.88
2022-12-05T00:24:51.269Z,23.27
2022-12-05T00:27:17.533Z,23.30
2022-12-05T00:29:43.802Z,22.75
2022-12-05T00:32:10.098Z,25.17
2022-12-05T00:34:36.416Z,24.85
2022-12-05T00:37:02.615Z,24.00
2022-12-05T00:39:28.876Z,22.58
2022-12-05T00:41:55.097Z,23.23
2022-12-05T00:44:21.397Z,24.58
2022-12-05T00:46:47.625Z,24.00
2022-12-05T00:49:13.905Z,22.83
2022-12-05T00:51:41.248Z,24.77
2022-12-05T00:54:08.668Z,23.42
2022-12-05T00:56:35.493Z,24.17
2022-12-05T00:59:02.553Z,21.70
2022-12-05T01:01:36.539Z,21.15
2022-12-05T01:04:07.713Z,21.23
2022-12-05T01:06:34.312Z,23.00
2022-12-05T01:09:00.798Z,22.48
2022-12-05T01:11:27.333Z,21.83
2022-12-05T01:13:53.899Z,20.98
2022-12-05T01:16:22.745Z,22.42
2022-12-05T01:18:49.263Z,23.63
2022-12-05T01:21:15.550Z,22.23
2022-12-05T01:23:41.762Z,21.17
2022-12-05T01:26:09.239Z,22.45
2022-12-05T01:28:35.987Z,22.33
2022-12-05T01:31:28.625Z,20.88
2022-12-05T01:33:55.663Z,20.17
2022-12-05T01:36:22.350Z,20.85
2022-12-05T01:38:48.739Z,21.30
2022-12-05T01:41:16.634Z,19.80
2022-12-05T01:43:53.052Z,20.95
2022-12-05T01:46:19.360Z,20.42
2022-12-05T01:48:45.692Z,21.40
2022-12-05T01:51:12.206Z,20.88
2022-12-05T01:53:38.478Z,21.33
2022-12-05T01:56:04.834Z,20.33
2022-12-05T01:58:33.056Z,19.40
2022-12-05T02:00:59.337Z,21.17
2022-12-05T02:03:25.593Z,21.55
2022-12-05T02:05:53.332Z,21.73
2022-12-05T02:08:19.782Z,20.73
2022-12-05T02:11:08.923Z,20.65
2022-12-05T02:13:44.389Z,21.15
2022-12-05T02:16:18.916Z,20.48
2022-12-05T02:18:56.495Z,21.30
2022-12-05T02:21:31.692Z,20.50
2022-12-05T02:24:21.817Z,18.98
2022-12-05T02:26:53.439Z,20.63
2022-12-05T02:29:28.478Z,20.85
2022-12-05T02:32:00.938Z,20.60
2022-12-05T02:34:52.984Z,20.33
2022-12-05T02:37:27.618Z,20.95
2022-12-05T02:40:05.467Z,19.23
2022-12-05T02:42:35.233Z,20.52
2022-12-05T02:45:21.270Z,20.60
2022-12-05T02:47:49.170Z,21.42
2022-12-05T02:50:18.587Z,20.50
2022-12-05T02:52:47.422Z,20.67
2022-12-05T02:55:14.663Z,20.13
2022-12-05T02:57:44.430Z,21.58
2022-12-05T03:00:10.908Z,21.92
2022-12-05T03:02:39.255Z,19.83
2022-12-05T03:05:32.832Z,20.83
2022-12-05T03:08:00.206Z,21.60
2022-12-05T03:10:28.651Z,20.95
2022-12-05T03:12:56.590Z,18.88
2022-12-05T03:15:25.563Z,20.15
2022-12-05T03:17:53.704Z,19.02
2022-12-05T03:20:30.836Z,20.30
2022-12-05T03:23:03.109Z,19.58
2022-12-05T03:25:40.324Z,19.38
2022-12-05T03:28:09.374Z,19.92
2022-12-05T03:30:37.972Z,18.98
2022-12-05T03:33:10.511Z,20.90
2022-12-05T03:35:56.867Z,20.15
2022-12-05T03:38:23.069Z,18.55
2022-12-05T03:40:54.368Z,18.35
2022-12-05T03:43:39.226Z,18.23
2022-12-05T03:46:07.952Z,18.88
2022-12-05T03:48:52.192Z,19.33
2022-12-05T03:51:18.991Z,18.20
2022-12-05T03:53:48.838Z,18.58
2022-12-05T03:56:17.940Z,17.75
2022-12-05T03:58:48.424Z,17.25
2022-12-05T04:01:16.423Z,18.93
2022-12-05T04:03:50.877Z,19.30
2022-12-05T04:06:29.011Z,18.13
2022-12-05T04:09:00.333Z,17.42
2022-12-05T04:11:29.744Z,18.58
2022-12-05T04:13:59.315Z,17.25
2022-12-05T04:16:49.063Z,18.63
2022-12-05T04:19:18.625Z,18.35
2022-12-05T04:21:47.174Z,16.92
2022-12-05T04:24:54.542Z,17.80
2022-12-05T04:27:27.966Z,17.30
2022-12-05T04:29:54.154Z,18.08
2022-12-05T04:32:23.195Z,18.95
2022-12-05T04:34:53.273Z,18.52
2022-12-05T04:37:23.394Z,18.25
2022-12-05T04:40:01.464Z,15.88
2022-12-05T04:42:28.847Z,16.23
2022-12-05T04:44:57.275Z,16.83
2022-12-05T04:47:25.793Z,16.70
2022-12-05T04:49:53.929Z,17.13
2022-12-05T04:52:20.935Z,17.90
2022-12-05T04:54:49.365Z,17.92
2022-12-05T04:57:30.886Z,17.33
2022-12-05T05:02:27.779Z,16.10
2022-12-05T05:04:55.056Z,18.63
2022-12-05T05:07:21.990Z,16.65
2022-12-05T05:09:48.309Z,18.30
2022-12-05T05:12:18.996Z,18.15
2022-12-05T05:14:45.536Z,18.38
2022-12-05T05:17:11.728Z,17.38
2022-12-05T05:19:37.961Z,18.52
2022-12-05T05:22:04.198Z,17.33
2022-12-05T05:24:30.388Z,18.15
2022-12-05T05:26:57.603Z,17.50
2022-12-05T05:29:24.077Z,19.20
2022-12-05T05:31:50.266Z,21.50
2022-12-05T05:34:16.640Z,17.88
2022-12-05T05:36:43.818Z,17.45
2022-12-05T05:39:12.360Z,17.30
2022-12-05T05:41:38.565Z,18.05
2022-12-05T05:44:05.302Z,18.38
2022-12-05T05:46:33.497Z,19.02
2022-12-05T05:49:00.048Z,17.60
2022-12-05T05:51:29.027Z,18.33
2022-12-05T05:53:55.909Z,18.88
2022-12-05T05:56:22.407Z,18.67
2022-12-05T05:58:48.949Z,16.92
2022-12-05T06:01:20.235Z,18.00
2022-12-05T06:03:46.644Z,18.65
2022-12-05T06:06:13.687Z,18.63
2022-12-05T06:08:41.173Z,18.15
2022-12-05T06:11:08.369Z,17.05
2022-12-05T06:13:34.739Z,18.80
2022-12-05T06:16:01.229Z,18.73
2022-12-05T06:18:27.908Z,19.23
2022-12-05T06:20:54.918Z,17.65
2022-12-05T06:23:21.374Z,17.70
2022-12-05T06:25:48.722Z,18.88
2022-12-05T06:28:15.197Z,18.25
2022-12-05T06:30:41.508Z,18.67
2022-12-05T06:33:08.154Z,19.17
2022-12-05T06:35:34.369Z,19.13
2022-12-05T06:38:00.569Z,19.02
2022-12-05T06:40:26.797Z,19.40
2022-12-05T06:42:53.068Z,19.63
2022-12-05T06:45:19.290Z,18.33
2022-12-05T06:47:45.523Z,17.85
2022-12-05T06:50:12.678Z,17.80
2022-12-05T06:52:38.884Z,20.20
2022-12-05T06:55:05.386Z,18.88
2022-12-05T06:57:31.661Z,18.83
2022-12-05T07:00:16.847Z,19.52
2022-12-05T07:02:43.279Z,18.25
2022-12-05T07:05:10.211Z,18.40
2022-12-05T07:07:36.441Z,19.73
2022-12-05T07:10:03.219Z,19.42
2022-12-05T07:12:29.428Z,18.58
2022-12-05T07:14:55.640Z,19.58
2022-12-05T07:17:21.979Z,18.48
2022-12-05T07:19:49.439Z,18.88
2022-12-05T07:22:16.516Z,20.13
2022-12-05T07:24:43.144Z,18.33
2022-12-05T07:27:09.338Z,19.30
2022-12-05T07:29:35.618Z,19.60
2022-12-05T07:32:02.302Z,19.63
2022-12-05T07:34:28.690Z,19.75
2022-12-05T07:36:54.895Z,19.85
2022-12-05T07:39:21.154Z,20.50
2022-12-05T07:41:47.345Z,19.83
2022-12-05T07:44:13.631Z,19.25
2022-12-05T07:46:39.949Z,19.08
2022-12-05T07:49:07.135Z,20.13
2022-12-05T07:51:33.578Z,19.00
2022-12-05T07:53:59.909Z,19.70
2022-12-05T07:56:26.115Z,18.48
2022-12-05T07:58:52.665Z,19.55
2022-12-05T08:01:20.036Z,20.55
2022-12-05T08:03:46.598Z,19.95
2022-12-05T08:06:17.064Z,19.70
2022-12-05T08:08:43.644Z,18.50
2022-12-05T08:11:12.168Z,18.75
2022-12-05T08:13:38.469Z,18.63
2022-12-05T08:16:05.797Z,18.77
2022-12-05T08:18:31.990Z,18.63
2022-12-05T08:21:02.083Z,19.42
2022-12-05T08:23:29.054Z,19.13
2022-12-05T08:25:55.245Z,18.88
2022-12-05T08:28:21.442Z,18.15
2022-12-05T08:30:47.714Z,19.48
2022-12-05T08:33:13.963Z,19.08
2022-12-05T08:35:40.164Z,19.85
2022-12-05T08:38:06.358Z,17.38
2022-12-05T08:40:32.565Z,19.42
2022-12-05T08:42:58.760Z,18.25
2022-12-05T08:45:24.955Z,18.42
2022-12-05T08:47:51.151Z,17.88
2022-12-05T08:50:17.418Z,16.55
2022-12-05T08:52:43.610Z,16.70
2022-12-05T08:55:10.146Z,19.00
2022-12-05T08:57:36.373Z,18.77
2022-12-05T09:00:05.842Z,18.80
2022-12-05T09:02:32.134Z,18.20
2022-12-05T09:05:09.055Z,18.98
2022-12-05T09:07:44.649Z,17.15
2022-12-05T09:10:10.949Z,17.73
2022-12-05T09:12:37.890Z,17.92
2022-12-05T09:15:07.548Z,17.95
2022-12-05T09:17:34.193Z,17.88
2022-12-05T09:20:00.397Z,18.55
2022-12-05T09:22:26.786Z,17.52
2022-12-05T09:24:52.999Z,19.00
2022-12-05T09:27:19.197Z,17.80
2022-12-05T09:29:45.409Z,18.63
2022-12-05T09:32:12.299Z,18.67
2022-12-05T09:34:38.526Z,19.83
2022-12-05T09:37:23.183Z,19.40
2022-12-05T09:39:51.613Z,19.83
2022-12-05T09:42:41.108Z,18.15
2022-12-05T09:45:17.521Z,19.08
2022-12-05T09:47:52.945Z,19.00
2022-12-05T09:50:23.378Z,18.73
2022-12-05T09:52:58.605Z,19.63
2022-12-05T09:55:25.427Z,19.20
2022-12-05T09:57:52.823Z,19.73
2022-12-05T10:00:19.334Z,19.60
2022-12-05T10:02:50.369Z,18.77
2022-12-05T10:05:24.466Z,19.33
2022-12-05T10:08:02.960Z,19.20
2022-12-05T10:10:48.838Z,19.20
2022-12-05T10:13:20.947Z,19.58
2022-12-05T10:15:53.005Z,20.15
2022-12-05T10:18:38.787Z,18.80
2022-12-05T10:21:10.172Z,19.02
2022-12-05T10:26:25.038Z,16.52
2022-12-05T10:28:51.230Z,16.48
2022-12-05T10:31:19.457Z,17.00
2022-12-05T10:33:50.453Z,16.80
2022-12-05T10:36:17.042Z,16.35
2022-12-05T10:38:44.364Z,16.92
2022-12-05T10:41:12.513Z,16.58
2022-12-05T10:43:43.333Z,16.88
2022-12-05T10:46:14.143Z,16.17
2022-12-05T10:48:43.178Z,17.60
2022-12-05T10:51:17.399Z,15.60
2022-12-05T10:53:45.391Z,15.80
2022-12-05T10:56:31.028Z,15.45
2022-12-05T10:58:57.752Z,16.00
2022-12-05T11:01:25.936Z,16.02
2022-12-05T11:04:00.335Z,16.88
2022-12-05T11:06:31.338Z,16.42
2022-12-05T11:09:06.472Z,16.38
2022-12-05T11:11:33.642Z,18.00
2022-12-05T11:14:01.234Z,17.90
2022-12-05T11:16:32.888Z,17.05
2022-12-05T11:19:38.116Z,17.50
2022-12-05T11:22:05.033Z,17.63
2022-12-05T11:24:32.656Z,19.00
2022-12-05T11:27:00.851Z,18.63
2022-12-05T11:29:28.604Z,19.58
2022-12-05T11:31:54.805Z,19.70
2022-12-05T11:34:27.082Z,20.83
2022-12-05T11:36:55.963Z,18.52
2022-12-05T11:39:22.286Z,19.50
2022-12-05T11:41:54.514Z,19.90
2022-12-05T11:44:39.074Z,21.05
2022-12-05T11:47:05.273Z,20.45
2022-12-05T11:49:40.235Z,20.92
2022-12-05T11:52:24.976Z,19.38
2022-12-05T11:55:06.765Z,20.80
2022-12-05T11:57:52.689Z,21.23
2022-12-05T12:00:48.423Z,20.05
2022-12-05T12:03:27.279Z,20.40
2022-12-05T12:08:24.391Z,18.73
2022-12-05T12:11:09.650Z,17.92
2022-12-05T12:13:54.131Z,18.55
2022-12-05T12:16:43.062Z,18.48
2022-12-05T12:19:09.355Z,18.73
2022-12-05T12:21:38.843Z,19.92
2022-12-05T12:24:27.353Z,20.05
2022-12-05T12:27:14.713Z,18.13
2022-12-05T12:29:43.887Z,23.13
2022-12-05T12:32:10.177Z,19.55
2022-12-05T12:34:49.440Z,20.00
2022-12-05T12:37:35.077Z,19.05
2022-12-05T12:40:13.052Z,17.77
2022-12-05T12:42:52.250Z,22.98
2022-12-05T12:45:33.683Z,24.15
2022-12-05T12:48:15.961Z,29.77
2022-12-05T12:50:44.268Z,19.98
2022-12-05T12:53:29.534Z,18.55
2022-12-05T12:56:11.190Z,17.20
2022-12-05T12:58:56.487Z,16.65
2022-12-05T13:01:35.648Z,17.15
2022-12-05T13:04:12.278Z,16.75
2022-12-05T13:06:43.983Z,17.05
2022-12-05T13:09:24.878Z,17.70
2022-12-05T13:11:51.815Z,18.60
2022-12-05T13:14:19.617Z,18.80
2022-12-05T13:16:50.074Z,18.35
2022-12-05T13:19:40.679Z,20.37
2022-12-05T13:22:07.477Z,19.77
2022-12-05T13:24:33.864Z,19.30
2022-12-05T13:27:01.410Z,18.35
2022-12-05T13:29:40.356Z,18.05
2022-12-05T13:32:08.546Z,19.45
2022-12-05T13:34:45.600Z,18.52
2022-12-05T13:37:36.020Z,19.35
2022-12-05T13:40:21.278Z,19.75
2022-12-05T13:42:48.203Z,20.02
2022-12-05T13:45:17.412Z,18.13
2022-12-05T13:47:56.014Z,20.40
2022-12-05T13:50:28.745Z,19.55
2022-12-05T13:52:56.370Z,20.25
2022-12-05T13:55:29.525Z,20.67
2022-12-05T13:58:00.446Z,19.20
2022-12-05T14:00:27.652Z,19.88
2022-12-05T14:02:54.852Z,21.40
2022-12-05T14:05:21.145Z,20.85
2022-12-05T14:07:48.215Z,20.45
2022-12-05T14:10:18.535Z,22.50
2022-12-05T14:12:49.887Z,20.75
2022-12-05T14:15:29.810Z,21.30
2022-12-05T14:18:09.745Z,20.23
2022-12-05T14:20:45.314Z,20.60
2022-12-05T14:23:11.529Z,20.45
2022-12-05T14:25:58.096Z,20.00
2022-12-05T14:28:46.596Z,19.85
2022-12-05T14:31:31.455Z,20.25
2022-12-05T14:34:17.812Z,20.33
2022-12-05T14:36:57.837Z,19.85
2022-12-05T14:39:56.984Z,19.10
2022-12-05T14:42:35.442Z,19.80
2022-12-05T14:45:02.991Z,19.42
2022-12-05T14:47:32.474Z,20.50
2022-12-05T14:50:02.627Z,18.48
2022-12-05T14:52:30.791Z,19.33
2022-12-05T14:55:02.050Z,20.30
2022-12-05T14:57:29.071Z,20.55
2022-12-05T15:00:06.513Z,19.77
2022-12-05T15:02:36.630Z,19.30
2022-12-05T15:05:05.912Z,20.10
2022-12-05T15:07:35.132Z,18.88
2022-12-05T15:10:07.239Z,18.58
2022-12-05T15:12:47.752Z,18.83
2022-12-05T15:15:34.313Z,18.85
2022-12-05T15:18:04.835Z,18.10
2022-12-05T15:20:40.441Z,18.67
2022-12-05T15:23:25.673Z,16.92
2022-12-05T15:25:57.088Z,17.85
2022-12-05T15:28:24.271Z,16.05
2022-12-05T15:30:56.757Z,16.38
2022-12-05T15:33:24.141Z,14.35
2022-12-05T15:35:51.824Z,15.35
2022-12-05T15:38:27.490Z,15.57
2022-12-05T15:40:54.043Z,15.45
2022-12-05T15:43:28.351Z,15.88
2022-12-05T15:46:06.736Z,16.40
2022-12-05T15:48:33.015Z,16.05
2022-12-05T15:50:59.339Z,16.45
2022-12-05T15:53:34.253Z,16.88
2022-12-05T15:56:13.532Z,16.50
2022-12-05T15:58:43.271Z,16.42
2022-12-05T16:01:15.501Z,17.30
2022-12-05T16:03:45.916Z,15.43
2022-12-05T16:06:22.079Z,15.57
2022-12-05T16:08:48.857Z,16.08
2022-12-05T16:11:15.476Z,16.20
2022-12-05T16:13:43.313Z,16.15
2022-12-05T16:16:14.084Z,16.45
2022-12-05T16:18:40.374Z,16.25
2022-12-05T16:21:27.696Z,17.05
2022-12-05T16:23:59.876Z,16.63
2022-12-05T16:26:26.271Z,16.10
2022-12-05T16:29:02.091Z,17.25
2022-12-05T16:31:29.331Z,16.67
2022-12-05T16:34:15.950Z,16.98
2022-12-05T16:36:49.404Z,16.83
2022-12-05T16:39:19.362Z,17.25
2022-12-05T16:41:46.344Z,13.30
2022-12-05T16:44:28.261Z,16.60
2022-12-05T16:46:55.299Z,15.25
2022-12-05T16:49:30.846Z,15.98
2022-12-05T16:52:12.246Z,16.08
2022-12-05T16:54:38.492Z,15.52
2022-12-05T16:57:04.972Z,15.00
2022-12-05T16:59:35.491Z,15.93
2022-12-05T17:02:02.745Z,16.83
2022-12-05T17:04:29.265Z,15.43
2022-12-05T17:06:55.551Z,16.35
2022-12-05T17:09:21.784Z,15.82
2022-12-05T17:11:49.259Z,16.02
2022-12-05T17:14:17.161Z,16.00
2022-12-05T17:16:43.698Z,13.88
2022-12-05T17:19:10.823Z,14.10
2022-12-05T17:21:37.918Z,14.35
2022-12-05T17:24:04.224Z,15.60
2022-12-05T17:26:30.790Z,14.75
2022-12-05T17:28:57.117Z,15.13
2022-12-05T17:31:24.589Z,14.60
2022-12-05T17:33:52.117Z,14.27
2022-12-05T17:36:20.916Z,15.23
2022-12-05T17:38:47.122Z,14.77
2022-12-05T17:41:18.208Z,14.30
2022-12-05T17:43:45.822Z,16.55
2022-12-05T17:46:16.498Z,15.82
2022-12-05T17:48:43.081Z,16.05
2022-12-05T17:51:11.277Z,15.02
2022-12-05T17:53:38.598Z,16.42
2022-12-05T17:56:05.218Z,16.33
2022-12-05T17:58:31.492Z,15.50
2022-12-05T18:00:58.368Z,17.05
2022-12-05T18:03:24.649Z,16.75
2022-12-05T18:05:50.904Z,17.85
2022-12-05T18:08:17.609Z,16.85
2022-12-05T18:10:44.725Z,16.60
2022-12-05T18:13:11.113Z,16.95
2022-12-05T18:15:42.469Z,18.20
2022-12-05T18:18:13.305Z,17.17
2022-12-05T18:20:39.647Z,17.77
2022-12-05T18:23:05.885Z,18.20
2022-12-05T18:25:32.100Z,17.13
2022-12-05T18:27:58.602Z,15.05
2022-12-05T18:30:24.871Z,16.20
2022-12-05T18:32:51.104Z,16.58
2022-12-05T18:35:17.406Z,17.30
2022-12-05T18:37:43.705Z,16.85
2022-12-05T18:40:10.317Z,16.13
2022-12-05T18:42:36.643Z,16.27
2022-12-05T18:45:03.827Z,16.60
2022-12-05T18:47:30.050Z,16.02
2022-12-05T18:49:56.366Z,15.63
2022-12-05T18:52:22.643Z,14.23
2022-12-05T18:55:03.052Z,15.32
2022-12-05T18:57:36.207Z,16.48
2022-12-05T19:00:03.765Z,15.15
2022-12-05T19:02:29.998Z,14.40
2022-12-05T19:04:56.504Z,16.00
2022-12-05T19:07:22.849Z,14.55
2022-12-05T19:09:49.111Z,15.38
2022-12-05T19:12:15.614Z,14.23
2022-12-05T19:14:41.920Z,15.77
2022-12-05T19:17:08.253Z,15.32
2022-12-05T19:19:34.443Z,14.00
2022-12-05T19:22:02.007Z,14.02
2022-12-05T19:24:28.263Z,14.43
2022-12-05T19:26:54.683Z,12.65
2022-12-05T19:29:20.900Z,14.15
2022-12-05T19:31:47.313Z,13.95
2022-12-05T19:34:13.636Z,13.27
2022-12-05T19:36:41.196Z,13.38
2022-12-05T19:39:09.540Z,12.93
2022-12-05T19:41:36.183Z,12.98
2022-12-05T19:44:02.803Z,13.23
2022-12-05T19:46:29.951Z,13.43
2022-12-05T19:48:57.178Z,12.77
2022-12-05T19:51:23.750Z,13.02
2022-12-05T19:53:50.163Z,13.07
2022-12-05T19:56:18.390Z,13.02
2022-12-05T19:58:45.070Z,13.75
2022-12-05T20:01:13.184Z,13.60
2022-12-05T20:03:39.645Z,13.90
2022-12-05T20:06:06.622Z,13.25
2022-12-05T20:08:34.339Z,13.63
2022-12-05T20:11:04.599Z,13.10
2022-12-05T20:13:47.721Z,13.35
2022-12-05T20:16:15.354Z,13.93
2022-12-05T20:18:41.606Z,13.55
2022-12-05T20:21:09.187Z,13.57
2022-12-05T20:23:35.836Z,14.15
2022-12-05T20:26:06.432Z,13.85
2022-12-05T20:28:33.053Z,14.65
2022-12-05T20:31:03.314Z,15.02
2022-12-05T20:33:29.632Z,13.68
2022-12-05T20:35:55.892Z,14.05
2022-12-05T20:38:22.103Z,14.32
2022-12-05T20:40:48.323Z,14.65
2022-12-05T20:43:14.879Z,14.10
2022-12-05T20:45:41.193Z,14.43
2022-12-05T20:48:08.107Z,16.15
2022-12-05T20:50:34.343Z,14.70
2022-12-05T20:53:00.752Z,15.82
2022-12-05T20:55:26.972Z,14.82
2022-12-05T20:57:53.190Z,17.30
2022-12-05T21:00:21.278Z,17.00
2022-12-05T21:02:47.598Z,16.83
2022-12-05T21:05:13.899Z,17.10
2022-12-05T21:07:40.181Z,17.52
2022-12-05T21:10:08.507Z,17.63
2022-12-05T21:12:35.012Z,17.40
2022-12-05T21:15:01.181Z,18.35
2022-12-05T21:17:27.809Z,17.83
2022-12-05T21:19:54.008Z,19.10
2022-12-05T21:22:20.284Z,18.33
2022-12-05T21:24:46.518Z,19.23
2022-12-05T21:27:12.850Z,18.20
2022-12-05T21:29:39.040Z,18.02
2022-12-05T21:32:05.280Z,19.00
2022-12-05T21:34:31.499Z,18.67
2022-12-05T21:36:59.076Z,18.38
2022-12-05T21:39:25.345Z,18.23
2022-12-05T21:41:51.670Z,19.42
2022-12-05T21:44:19.811Z,18.52
2022-12-05T21:46:46.119Z,17.67
2022-12-05T21:49:12.391Z,18.38
2022-12-05T21:51:38.594Z,18.27
2022-12-05T21:54:04.822Z,17.40
2022-12-05T21:56:31.181Z,17.88
2022-12-05T21:58:57.456Z,17.77
2022-12-05T22:01:24.977Z,17.83
2022-12-05T22:03:52.408Z,18.55
2022-12-05T22:06:18.852Z,18.65
2022-12-05T22:08:45.089Z,18.35
2022-12-05T22:11:12.800Z,17.88
2022-12-05T22:13:39.555Z,19.00
2022-12-05T22:16:06.628Z,17.35
2022-12-05T22:18:34.372Z,17.90
2022-12-05T22:21:02.360Z,18.65
2022-12-05T22:23:28.661Z,17.55
2022-12-05T22:26:05.805Z,18.63
2022-12-05T22:28:32.353Z,18.52
2022-12-05T22:31:00.501Z,18.73
2022-12-05T22:33:27.340Z,18.23
2022-12-05T22:35:55.166Z,18.95
2022-12-05T22:38:21.404Z,18.27
2022-12-05T22:40:52.590Z,18.35
2022-12-05T22:43:18.862Z,17.80
2022-12-05T22:45:45.044Z,18.08
2022-12-05T22:48:11.283Z,17.08
2022-12-05T22:50:37.470Z,16.63
2022-12-05T22:53:03.822Z,17.65
2022-12-05T22:55:31.261Z,16.52
2022-12-05T22:57:57.456Z,16.38
2022-12-05T23:00:23.887Z,16.13
2022-12-05T23:02:50.176Z,15.73
2022-12-05T23:05:16.506Z,15.25
2022-12-05T23:07:42.813Z,14.55
2022-12-05T23:10:09.272Z,15.75
2022-12-05T23:12:35.501Z,14.75
2022-12-05T23:15:01.732Z,16.30
2022-12-05T23:17:27.967Z,15.95
2022-12-05T23:19:54.205Z,17.27
2022-12-05T23:22:20.482Z,15.07
2022-12-05T23:24:46.685Z,14.82
2022-12-05T23:27:12.918Z,14.30
2022-12-05T23:29:39.405Z,14.38
2022-12-05T23:32:05.665Z,13.63
2022-12-05T23:34:31.963Z,14.10
2022-12-05T23:36:58.377Z,13.60
2022-12-05T23:39:24.812Z,13.50
2022-12-05T23:41:51.694Z,12.88
2022-12-05T23:44:18.140Z,12.88
2022-12-05T23:46:44.631Z,12.73
2022-12-05T23:49:11.077Z,12.15
2022-12-05T23:51:40.312Z,13.15
2022-12-05T23:54:09.274Z,12.30
2022-12-05T23:56:35.900Z,12.82
2022-12-05T23:59:03.075Z,13.20
